sensor_id;sensor_type;location;lat;lon;timestamp;P1;durP1;ratioP1;P2;durP2;ratioP2
14688;SDS011;7432;48.728;9.154;2023-05-27T00:00:32;8.13;;;5.83;;
14688;SDS011;7432;48.728;9.154;2023-05-27T00:02:58;9.07;;;6.40;;
14688;SDS011;7432;48.728;9.154;2023-05-27T00:05:25;7.60;;;6.23;;
14688;SDS011;7432;48.728;9.154;2023-05-27T00:07:51;12.37;;;7.00;;
14688;SDS011;7432;48.728;9.154;2023-05-27T00:10:18;8.40;;;6.10;;
14688;SDS011;7432;48.728;9.154;2023-05-27T00:12:46;9.47;;;6.53;;
14688;SDS011;7432;48.728;9.154;2023-05-27T00:15:13;10.30;;;6.50;;
14688;SDS011;7432;48.728;9.154;2023-05-27T00:17:39;8.77;;;6.20;;
14688;SDS011;7432;48.728;9.154;2023-05-27T00:20:07;9.07;;;6.50;;
14688;SDS011;7432;48.728;9.154;2023-05-27T00:22:35;10.77;;;6.53;;
14688;SDS011;7432;48.728;9.154;2023-05-27T00:25:02;9.40;;;6.20;;
14688;SDS011;7432;48.728;9.154;2023-05-27T00:27:29;9.73;;;6.37;;
14688;SDS011;7432;48.728;9.154;2023-05-27T00:29:56;8.87;;;6.17;;
14688;SDS011;7432;48.728;9.154;2023-05-27T00:32:23;9.33;;;5.87;;
14688;SDS011;7432;48.728;9.154;2023-05-27T00:34:49;8.60;;;6.53;;
14688;SDS011;7432;48.728;9.154;2023-05-27T00:37:16;8.43;;;5.73;;
14688;SDS011;7432;48.728;9.154;2023-05-27T00:39:42;7.87;;;5.80;;
14688;SDS011;7432;48.728;9.154;2023-05-27T00:42:08;11.53;;;6.17;;
14688;SDS011;7432;48.728;9.154;2023-05-27T00:44:36;8.60;;;6.30;;
14688;SDS011;7432;48.728;9.154;2023-05-27T00:47:04;9.53;;;6.37;;
14688;SDS011;7432;48.728;9.154;2023-05-27T00:49:31;7.97;;;6.30;;
14688;SDS011;7432;48.728;9.154;2023-05-27T00:51:57;11.03;;;6.47;;
14688;SDS011;7432;48.728;9.154;2023-05-27T00:54:23;14.53;;;7.30;;
14688;SDS011;7432;48.728;9.154;2023-05-27T00:56:50;13.97;;;6.53;;
14688;SDS011;7432;48.728;9.154;2023-05-27T00:59:17;11.20;;;6.60;;
14688;SDS011;7432;48.728;9.154;2023-05-27T01:01:43;14.10;;;6.63;;
14688;SDS011;7432;48.728;9.154;2023-05-27T01:04:11;12.00;;;6.83;;
14688;SDS011;7432;48.728;9.154;2023-05-27T01:06:40;11.03;;;6.63;;
14688;SDS011;7432;48.728;9.154;2023-05-27T01:09:15;12.53;;;7.00;;
14688;SDS011;7432;48.728;9.154;2023-05-27T01:11:48;10.37;;;6.60;;
14688;SDS011;7432;48.728;9.154;2023-05-27T01:14:17;6.80;;;5.73;;
14688;SDS011;7432;48.728;9.154;2023-05-27T01:16:46;9.77;;;6.30;;
14688;SDS011;7432;48.728;9.154;2023-05-27T01:19:17;12.33;;;7.03;;
14688;SDS011;7432;48.728;9.154;2023-05-27T01:21:55;11.17;;;6.40;;
14688;SDS011;7432;48.728;9.154;2023-05-27T01:24:26;12.30;;;6.90;;
14688;SDS011;7432;48.728;9.154;2023-05-27T01:26:52;9.73;;;6.23;;
14688;SDS011;7432;48.728;9.154;2023-05-27T01:29:20;11.03;;;6.87;;
14688;SDS011;7432;48.728;9.154;2023-05-27T01:31:47;11.93;;;6.07;;
14688;SDS011;7432;48.728;9.154;2023-05-27T01:34:23;10.17;;;6.03;;
14688;SDS011;7432;48.728;9.154;2023-05-27T01:36:56;8.87;;;6.00;;
14688;SDS011;7432;48.728;9.154;2023-05-27T01:39:28;10.67;;;6.90;;
14688;SDS011;7432;48.728;9.154;2023-05-27T01:41:55;13.67;;;6.60;;
14688;SDS011;7432;48.728;9.154;2023-05-27T01:44:23;9.53;;;5.97;;
14688;SDS011;7432;48.728;9.154;2023-05-27T01:46:49;12.20;;;6.70;;
14688;SDS011;7432;48.728;9.154;2023-05-27T01:49:16;12.00;;;6.60;;
14688;SDS011;7432;48.728;9.154;2023-05-27T01:51:42;7.53;;;6.17;;
14688;SDS011;7432;48.728;9.154;2023-05-27T01:54:09;13.67;;;6.30;;
14688;SDS011;7432;48.728;9.154;2023-05-27T01:56:36;13.40;;;6.17;;
14688;SDS011;7432;48.728;9.154;2023-05-27T01:59:03;11.33;;;6.50;;
14688;SDS011;7432;48.728;9.154;2023-05-27T02:01:29;10.53;;;6.07;;
14688;SDS011;7432;48.728;9.154;2023-05-27T02:03:55;12.27;;;6.87;;
14688;SDS011;7432;48.728;9.154;2023-05-27T02:06:22;12.20;;;6.90;;
14688;SDS011;7432;48.728;9.154;2023-05-27T02:08:48;11.33;;;6.60;;
14688;SDS011;7432;48.728;9.154;2023-05-27T02:11:15;14.63;;;6.73;;
14688;SDS011;7432;48.728;9.154;2023-05-27T02:13:42;13.37;;;6.37;;
14688;SDS011;7432;48.728;9.154;2023-05-27T02:16:09;9.87;;;6.33;;
14688;SDS011;7432;48.728;9.154;2023-05-27T02:18:37;13.27;;;6.60;;
14688;SDS011;7432;48.728;9.154;2023-05-27T02:21:05;10.63;;;7.03;;
14688;SDS011;7432;48.728;9.154;2023-05-27T02:23:32;11.50;;;7.07;;
14688;SDS011;7432;48.728;9.154;2023-05-27T02:25:58;13.87;;;6.70;;
14688;SDS011;7432;48.728;9.154;2023-05-27T02:28:25;9.60;;;6.50;;
14688;SDS011;7432;48.728;9.154;2023-05-27T02:30:53;12.03;;;6.57;;
14688;SDS011;7432;48.728;9.154;2023-05-27T02:33:20;11.97;;;6.40;;
14688;SDS011;7432;48.728;9.154;2023-05-27T02:35:46;11.43;;;6.23;;
14688;SDS011;7432;48.728;9.154;2023-05-27T02:38:12;11.13;;;6.70;;
14688;SDS011;7432;48.728;9.154;2023-05-27T02:40:39;11.57;;;6.93;;
14688;SDS011;7432;48.728;9.154;2023-05-27T02:43:05;9.63;;;6.07;;
14688;SDS011;7432;48.728;9.154;2023-05-27T02:45:33;11.47;;;6.70;;
14688;SDS011;7432;48.728;9.154;2023-05-27T02:48:00;13.27;;;6.23;;
14688;SDS011;7432;48.728;9.154;2023-05-27T02:50:27;10.20;;;6.57;;
14688;SDS011;7432;48.728;9.154;2023-05-27T02:52:53;8.93;;;6.57;;
14688;SDS011;7432;48.728;9.154;2023-05-27T02:55:20;15.50;;;7.50;;
14688;SDS011;7432;48.728;9.154;2023-05-27T02:57:46;12.73;;;6.63;;
14688;SDS011;7432;48.728;9.154;2023-05-27T03:00:13;11.63;;;7.50;;
14688;SDS011;7432;48.728;9.154;2023-05-27T03:02:40;10.57;;;6.60;;
14688;SDS011;7432;48.728;9.154;2023-05-27T03:05:08;12.27;;;7.07;;
14688;SDS011;7432;48.728;9.154;2023-05-27T03:07:35;14.10;;;6.80;;
14688;SDS011;7432;48.728;9.154;2023-05-27T03:10:01;12.30;;;7.63;;
14688;SDS011;7432;48.728;9.154;2023-05-27T03:12:28;14.77;;;7.07;;
14688;SDS011;7432;48.728;9.154;2023-05-27T03:14:54;13.27;;;7.50;;
14688;SDS011;7432;48.728;9.154;2023-05-27T03:17:21;10.63;;;6.63;;
14688;SDS011;7432;48.728;9.154;2023-05-27T03:19:47;10.73;;;6.67;;
14688;SDS011;7432;48.728;9.154;2023-05-27T03:22:16;17.60;;;7.30;;
14688;SDS011;7432;48.728;9.154;2023-05-27T03:24:42;12.33;;;6.70;;
14688;SDS011;7432;48.728;9.154;2023-05-27T03:27:09;11.43;;;6.97;;
14688;SDS011;7432;48.728;9.154;2023-05-27T03:29:36;9.50;;;6.87;;
14688;SDS011;7432;48.728;9.154;2023-05-27T03:32:02;10.47;;;6.87;;
14688;SDS011;7432;48.728;9.154;2023-05-27T03:34:29;11.20;;;7.33;;
14688;SDS011;7432;48.728;9.154;2023-05-27T03:36:55;11.50;;;6.70;;
14688;SDS011;7432;48.728;9.154;2023-05-27T03:39:23;12.50;;;6.80;;
14688;SDS011;7432;48.728;9.154;2023-05-27T03:41:49;12.30;;;7.27;;
14688;SDS011;7432;48.728;9.154;2023-05-27T03:44:16;10.37;;;6.57;;
14688;SDS011;7432;48.728;9.154;2023-05-27T03:46:42;13.80;;;7.10;;
14688;SDS011;7432;48.728;9.154;2023-05-27T03:49:08;11.43;;;6.27;;
14688;SDS011;7432;48.728;9.154;2023-05-27T03:51:35;11.60;;;7.00;;
14688;SDS011;7432;48.728;9.154;2023-05-27T03:54:01;14.20;;;6.90;;
14688;SDS011;7432;48.728;9.154;2023-05-27T03:56:29;14.13;;;7.13;;
14688;SDS011;7432;48.728;9.154;2023-05-27T03:58:55;13.53;;;6.97;;
14688;SDS011;7432;48.728;9.154;2023-05-27T04:01:22;8.67;;;6.03;;
14688;SDS011;7432;48.728;9.154;2023-05-27T04:03:49;13.17;;;7.27;;
14688;SDS011;7432;48.728;9.154;2023-05-27T04:06:15;9.33;;;7.17;;
14688;SDS011;7432;48.728;9.154;2023-05-27T04:08:42;11.90;;;6.93;;
14688;SDS011;7432;48.728;9.154;2023-05-27T04:13:37;13.33;;;7.57;;
14688;SDS011;7432;48.728;9.154;2023-05-27T04:16:04;12.40;;;7.53;;
14688;SDS011;7432;48.728;9.154;2023-05-27T04:18:30;12.07;;;7.37;;
14688;SDS011;7432;48.728;9.154;2023-05-27T04:20:57;14.10;;;7.13;;
14688;SDS011;7432;48.728;9.154;2023-05-27T04:23:23;12.37;;;6.97;;
14688;SDS011;7432;48.728;9.154;2023-05-27T04:25:49;11.20;;;6.90;;
14688;SDS011;7432;48.728;9.154;2023-05-27T04:28:16;11.77;;;6.97;;
14688;SDS011;7432;48.728;9.154;2023-05-27T04:30:44;11.33;;;7.07;;
14688;SDS011;7432;48.728;9.154;2023-05-27T04:33:13;17.87;;;8.33;;
14688;SDS011;7432;48.728;9.154;2023-05-27T04:35:39;9.83;;;6.80;;
14688;SDS011;7432;48.728;9.154;2023-05-27T04:38:08;14.20;;;7.63;;
14688;SDS011;7432;48.728;9.154;2023-05-27T04:40:35;14.27;;;8.23;;
14688;SDS011;7432;48.728;9.154;2023-05-27T04:43:02;10.00;;;7.00;;
14688;SDS011;7432;48.728;9.154;2023-05-27T04:45:28;13.13;;;7.40;;
14688;SDS011;7432;48.728;9.154;2023-05-27T04:47:56;10.67;;;7.27;;
14688;SDS011;7432;48.728;9.154;2023-05-27T04:50:23;15.27;;;7.50;;
14688;SDS011;7432;48.728;9.154;2023-05-27T04:52:49;15.13;;;8.60;;
14688;SDS011;7432;48.728;9.154;2023-05-27T04:55:16;13.33;;;7.57;;
14688;SDS011;7432;48.728;9.154;2023-05-27T04:57:42;14.10;;;7.53;;
14688;SDS011;7432;48.728;9.154;2023-05-27T05:00:09;12.37;;;7.87;;
14688;SDS011;7432;48.728;9.154;2023-05-27T05:02:47;10.17;;;7.10;;
14688;SDS011;7432;48.728;9.154;2023-05-27T05:05:15;14.93;;;8.10;;
14688;SDS011;7432;48.728;9.154;2023-05-27T05:07:42;15.17;;;8.07;;
14688;SDS011;7432;48.728;9.154;2023-05-27T05:10:09;12.87;;;7.83;;
14688;SDS011;7432;48.728;9.154;2023-05-27T05:12:36;10.77;;;7.03;;
14688;SDS011;7432;48.728;9.154;2023-05-27T05:15:04;10.67;;;7.47;;
14688;SDS011;7432;48.728;9.154;2023-05-27T05:17:31;11.80;;;7.30;;
14688;SDS011;7432;48.728;9.154;2023-05-27T05:19:57;12.80;;;7.40;;
14688;SDS011;7432;48.728;9.154;2023-05-27T05:22:25;11.70;;;7.30;;
14688;SDS011;7432;48.728;9.154;2023-05-27T05:24:53;12.53;;;7.80;;
14688;SDS011;7432;48.728;9.154;2023-05-27T05:27:20;11.93;;;7.00;;
14688;SDS011;7432;48.728;9.154;2023-05-27T05:29:46;10.23;;;7.43;;
14688;SDS011;7432;48.728;9.154;2023-05-27T05:32:12;11.20;;;6.80;;
14688;SDS011;7432;48.728;9.154;2023-05-27T05:34:39;13.17;;;7.03;;
14688;SDS011;7432;48.728;9.154;2023-05-27T05:37:06;13.17;;;7.37;;
14688;SDS011;7432;48.728;9.154;2023-05-27T05:39:33;12.50;;;7.30;;
14688;SDS011;7432;48.728;9.154;2023-05-27T05:42:00;11.10;;;7.93;;
14688;SDS011;7432;48.728;9.154;2023-05-27T05:44:27;13.37;;;7.50;;
14688;SDS011;7432;48.728;9.154;2023-05-27T05:46:53;16.40;;;8.13;;
14688;SDS011;7432;48.728;9.154;2023-05-27T05:49:19;9.97;;;7.53;;
14688;SDS011;7432;48.728;9.154;2023-05-27T05:51:46;14.07;;;7.53;;
14688;SDS011;7432;48.728;9.154;2023-05-27T05:54:12;12.20;;;7.73;;
14688;SDS011;7432;48.728;9.154;2023-05-27T05:56:40;12.87;;;7.00;;
14688;SDS011;7432;48.728;9.154;2023-05-27T05:59:06;11.30;;;7.20;;
14688;SDS011;7432;48.728;9.154;2023-05-27T06:01:33;10.97;;;7.13;;
14688;SDS011;7432;48.728;9.154;2023-05-27T06:03:59;10.33;;;7.07;;
14688;SDS011;7432;48.728;9.154;2023-05-27T06:06:29;12.07;;;7.80;;
14688;SDS011;7432;48.728;9.154;2023-05-27T06:08:55;13.23;;;8.03;;
14688;SDS011;7432;48.728;9.154;2023-05-27T06:11:22;13.07;;;7.80;;
14688;SDS011;7432;48.728;9.154;2023-05-27T06:13:49;11.63;;;7.70;;
14688;SDS011;7432;48.728;9.154;2023-05-27T06:16:16;15.37;;;8.40;;
14688;SDS011;7432;48.728;9.154;2023-05-27T06:18:42;12.73;;;8.87;;
14688;SDS011;7432;48.728;9.154;2023-05-27T06:21:10;12.82;;;8.63;;
14688;SDS011;7432;48.728;9.154;2023-05-27T06:23:37;11.52;;;8.90;;
14688;SDS011;7432;48.728;9.154;2023-05-27T06:26:03;11.25;;;8.45;;
14688;SDS011;7432;48.728;9.154;2023-05-27T06:28:30;12.32;;;8.85;;
14688;SDS011;7432;48.728;9.154;2023-05-27T06:30:58;12.88;;;8.40;;
14688;SDS011;7432;48.728;9.154;2023-05-27T06:33:24;9.07;;;7.97;;
14688;SDS011;7432;48.728;9.154;2023-05-27T06:35:50;10.38;;;8.25;;
14688;SDS011;7432;48.728;9.154;2023-05-27T06:38:17;15.45;;;9.15;;
14688;SDS011;7432;48.728;9.154;2023-05-27T06:40:43;10.30;;;8.68;;
14688;SDS011;7432;48.728;9.154;2023-05-27T06:43:09;11.32;;;8.27;;
14688;SDS011;7432;48.728;9.154;2023-05-27T06:45:36;10.93;;;8.43;;
14688;SDS011;7432;48.728;9.154;2023-05-27T06:48:03;10.57;;;8.10;;
14688;SDS011;7432;48.728;9.154;2023-05-27T06:50:30;9.82;;;8.55;;
14688;SDS011;7432;48.728;9.154;2023-05-27T06:52:57;11.27;;;8.32;;
14688;SDS011;7432;48.728;9.154;2023-05-27T06:55:23;11.75;;;8.90;;
14688;SDS011;7432;48.728;9.154;2023-05-27T06:57:50;11.90;;;8.88;;
14688;SDS011;7432;48.728;9.154;2023-05-27T07:00:16;10.27;;;8.88;;
14688;SDS011;7432;48.728;9.154;2023-05-27T07:02:43;11.10;;;9.10;;
14688;SDS011;7432;48.728;9.154;2023-05-27T07:05:11;10.38;;;8.75;;
14688;SDS011;7432;48.728;9.154;2023-05-27T07:07:37;11.38;;;8.43;;
14688;SDS011;7432;48.728;9.154;2023-05-27T07:10:04;9.50;;;8.50;;
14688;SDS011;7432;48.728;9.154;2023-05-27T07:12:31;12.73;;;9.35;;
14688;SDS011;7432;48.728;9.154;2023-05-27T07:14:57;10.23;;;9.15;;
14688;SDS011;7432;48.728;9.154;2023-05-27T07:17:24;9.95;;;8.38;;
14688;SDS011;7432;48.728;9.154;2023-05-27T07:19:50;10.05;;;8.55;;
14688;SDS011;7432;48.728;9.154;2023-05-27T07:22:18;9.88;;;9.02;;
14688;SDS011;7432;48.728;9.154;2023-05-27T07:24:44;10.82;;;9.30;;
14688;SDS011;7432;48.728;9.154;2023-05-27T07:27:11;11.68;;;9.48;;
14688;SDS011;7432;48.728;9.154;2023-05-27T07:29:37;9.85;;;8.85;;
14688;SDS011;7432;48.728;9.154;2023-05-27T07:32:04;10.38;;;9.50;;
14688;SDS011;7432;48.728;9.154;2023-05-27T07:34:30;15.82;;;8.88;;
14688;SDS011;7432;48.728;9.154;2023-05-27T07:36:57;11.00;;;8.73;;
14688;SDS011;7432;48.728;9.154;2023-05-27T07:39:25;11.95;;;9.80;;
14688;SDS011;7432;48.728;9.154;2023-05-27T07:41:51;9.82;;;8.98;;
14688;SDS011;7432;48.728;9.154;2023-05-27T07:44:18;13.82;;;9.60;;
14688;SDS011;7432;48.728;9.154;2023-05-27T07:46:44;12.32;;;9.02;;
14688;SDS011;7432;48.728;9.154;2023-05-27T07:49:12;10.35;;;9.30;;
14688;SDS011;7432;48.728;9.154;2023-05-27T07:51:39;11.70;;;9.18;;
14688;SDS011;7432;48.728;9.154;2023-05-27T07:54:05;10.45;;;9.38;;
14688;SDS011;7432;48.728;9.154;2023-05-27T07:56:33;10.57;;;8.90;;
14688;SDS011;7432;48.728;9.154;2023-05-27T07:59:00;9.88;;;8.98;;
14688;SDS011;7432;48.728;9.154;2023-05-27T08:01:26;10.68;;;9.60;;
14688;SDS011;7432;48.728;9.154;2023-05-27T08:03:55;10.38;;;9.38;;
14688;SDS011;7432;48.728;9.154;2023-05-27T08:06:22;10.48;;;9.45;;
14688;SDS011;7432;48.728;9.154;2023-05-27T08:08:48;11.00;;;9.63;;
14688;SDS011;7432;48.728;9.154;2023-05-27T08:11:14;12.60;;;9.82;;
14688;SDS011;7432;48.728;9.154;2023-05-27T08:13:42;11.43;;;9.60;;
14688;SDS011;7432;48.728;9.154;2023-05-27T08:16:09;10.95;;;9.90;;
14688;SDS011;7432;48.728;9.154;2023-05-27T08:18:36;10.55;;;9.55;;
14688;SDS011;7432;48.728;9.154;2023-05-27T08:21:02;13.77;;;10.00;;
14688;SDS011;7432;48.728;9.154;2023-05-27T08:23:29;10.57;;;9.48;;
14688;SDS011;7432;48.728;9.154;2023-05-27T08:25:55;10.52;;;9.48;;
14688;SDS011;7432;48.728;9.154;2023-05-27T08:28:22;11.93;;;9.80;;
14688;SDS011;7432;48.728;9.154;2023-05-27T08:30:49;10.35;;;9.38;;
14688;SDS011;7432;48.728;9.154;2023-05-27T08:33:16;10.80;;;9.70;;
14688;SDS011;7432;48.728;9.154;2023-05-27T08:35:43;11.23;;;10.07;;
14688;SDS011;7432;48.728;9.154;2023-05-27T08:38:09;12.13;;;10.02;;
14688;SDS011;7432;48.728;9.154;2023-05-27T08:40:35;11.25;;;10.15;;
14688;SDS011;7432;48.728;9.154;2023-05-27T08:43:02;11.30;;;10.18;;
14688;SDS011;7432;48.728;9.154;2023-05-27T08:45:29;13.05;;;10.77;;
14688;SDS011;7432;48.728;9.154;2023-05-27T08:47:57;10.65;;;9.25;;
14688;SDS011;7432;48.728;9.154;2023-05-27T08:50:24;10.90;;;9.80;;
14688;SDS011;7432;48.728;9.154;2023-05-27T08:52:52;10.45;;;9.27;;
14688;SDS011;7432;48.728;9.154;2023-05-27T08:55:19;9.98;;;8.95;;
14688;SDS011;7432;48.728;9.154;2023-05-27T08:57:48;10.95;;;9.88;;
14688;SDS011;7432;48.728;9.154;2023-05-27T09:00:16;14.07;;;10.23;;
14688;SDS011;7432;48.728;9.154;2023-05-27T09:02:43;10.20;;;9.40;;
14688;SDS011;7432;48.728;9.154;2023-05-27T09:05:11;12.50;;;10.05;;
14688;SDS011;7432;48.728;9.154;2023-05-27T09:07:38;11.05;;;9.85;;
14688;SDS011;7432;48.728;9.154;2023-05-27T09:10:05;10.02;;;9.13;;
14688;SDS011;7432;48.728;9.154;2023-05-27T09:12:32;10.35;;;9.45;;
14688;SDS011;7432;48.728;9.154;2023-05-27T09:14:59;10.80;;;9.80;;
14688;SDS011;7432;48.728;9.154;2023-05-27T09:17:26;9.90;;;9.05;;
14688;SDS011;7432;48.728;9.154;2023-05-27T09:19:53;10.50;;;9.50;;
14688;SDS011;7432;48.728;9.154;2023-05-27T09:22:22;10.82;;;9.80;;
14688;SDS011;7432;48.728;9.154;2023-05-27T09:24:49;10.80;;;9.70;;
14688;SDS011;7432;48.728;9.154;2023-05-27T09:27:19;10.73;;;9.73;;
14688;SDS011;7432;48.728;9.154;2023-05-27T09:29:50;10.73;;;9.68;;
14688;SDS011;7432;48.728;9.154;2023-05-27T09:32:22;10.98;;;9.65;;
14688;SDS011;7432;48.728;9.154;2023-05-27T09:34:49;11.05;;;9.95;;
14688;SDS011;7432;48.728;9.154;2023-05-27T09:37:16;11.50;;;9.60;;
14688;SDS011;7432;48.728;9.154;2023-05-27T09:39:47;10.85;;;9.93;;
14688;SDS011;7432;48.728;9.154;2023-05-27T09:42:13;12.93;;;10.07;;
14688;SDS011;7432;48.728;9.154;2023-05-27T09:44:40;11.75;;;10.48;;
14688;SDS011;7432;48.728;9.154;2023-05-27T09:47:07;11.82;;;10.70;;
14688;SDS011;7432;48.728;9.154;2023-05-27T09:49:36;11.30;;;9.75;;
14688;SDS011;7432;48.728;9.154;2023-05-27T09:52:03;11.07;;;10.02;;
14688;SDS011;7432;48.728;9.154;2023-05-27T09:54:31;11.00;;;9.90;;
14688;SDS011;7432;48.728;9.154;2023-05-27T09:56:59;11.50;;;10.40;;
14688;SDS011;7432;48.728;9.154;2023-05-27T09:59:26;10.98;;;9.88;;
14688;SDS011;7432;48.728;9.154;2023-05-27T10:01:53;10.52;;;9.70;;
14688;SDS011;7432;48.728;9.154;2023-05-27T10:04:20;10.98;;;10.05;;
14688;SDS011;7432;48.728;9.154;2023-05-27T10:06:47;11.18;;;10.20;;
14688;SDS011;7432;48.728;9.154;2023-05-27T10:09:14;10.95;;;10.05;;
14688;SDS011;7432;48.728;9.154;2023-05-27T10:11:42;11.32;;;10.07;;
14688;SDS011;7432;48.728;9.154;2023-05-27T10:14:10;10.82;;;9.85;;
14688;SDS011;7432;48.728;9.154;2023-05-27T10:16:37;13.02;;;10.52;;
14688;SDS011;7432;48.728;9.154;2023-05-27T10:19:08;11.60;;;10.50;;
14688;SDS011;7432;48.728;9.154;2023-05-27T10:21:41;11.27;;;10.25;;
14688;SDS011;7432;48.728;9.154;2023-05-27T10:24:09;11.38;;;10.30;;
14688;SDS011;7432;48.728;9.154;2023-05-27T10:26:37;11.13;;;10.23;;
14688;SDS011;7432;48.728;9.154;2023-05-27T10:29:05;11.00;;;10.00;;
14688;SDS011;7432;48.728;9.154;2023-05-27T10:31:34;10.95;;;10.13;;
14688;SDS011;7432;48.728;9.154;2023-05-27T10:34:03;11.85;;;9.77;;
14688;SDS011;7432;48.728;9.154;2023-05-27T10:36:31;10.82;;;9.75;;
14688;SDS011;7432;48.728;9.154;2023-05-27T10:38:58;11.55;;;10.35;;
14688;SDS011;7432;48.728;9.154;2023-05-27T10:41:28;11.57;;;10.40;;
14688;SDS011;7432;48.728;9.154;2023-05-27T10:43:54;10.38;;;9.57;;
14688;SDS011;7432;48.728;9.154;2023-05-27T10:46:21;11.88;;;10.80;;
14688;SDS011;7432;48.728;9.154;2023-05-27T10:48:49;11.02;;;9.98;;
14688;SDS011;7432;48.728;9.154;2023-05-27T10:51:16;11.40;;;10.30;;
14688;SDS011;7432;48.728;9.154;2023-05-27T10:53:42;11.07;;;10.07;;
14688;SDS011;7432;48.728;9.154;2023-05-27T10:56:09;12.00;;;10.70;;
14688;SDS011;7432;48.728;9.154;2023-05-27T10:58:36;12.43;;;11.27;;
14688;SDS011;7432;48.728;9.154;2023-05-27T11:01:07;12.02;;;9.82;;
14688;SDS011;7432;48.728;9.154;2023-05-27T11:03:35;10.68;;;9.68;;
14688;SDS011;7432;48.728;9.154;2023-05-27T11:06:08;10.68;;;9.68;;
14688;SDS011;7432;48.728;9.154;2023-05-27T11:08:36;11.05;;;9.80;;
14688;SDS011;7432;48.728;9.154;2023-05-27T11:11:05;11.48;;;10.30;;
14688;SDS011;7432;48.728;9.154;2023-05-27T11:13:33;11.20;;;9.45;;
14688;SDS011;7432;48.728;9.154;2023-05-27T11:16:01;10.77;;;9.73;;
14688;SDS011;7432;48.728;9.154;2023-05-27T11:18:36;10.68;;;9.68;;
14688;SDS011;7432;48.728;9.154;2023-05-27T11:21:03;10.60;;;9.80;;
14688;SDS011;7432;48.728;9.154;2023-05-27T11:23:34;10.30;;;9.40;;
14688;SDS011;7432;48.728;9.154;2023-05-27T11:26:02;10.43;;;9.48;;
14688;SDS011;7432;48.728;9.154;2023-05-27T11:28:29;10.80;;;9.80;;
14688;SDS011;7432;48.728;9.154;2023-05-27T11:30:57;11.80;;;10.55;;
14688;SDS011;7432;48.728;9.154;2023-05-27T11:33:29;10.93;;;9.88;;
14688;SDS011;7432;48.728;9.154;2023-05-27T11:36:02;11.18;;;10.13;;
14688;SDS011;7432;48.728;9.154;2023-05-27T11:38:29;10.70;;;9.73;;
14688;SDS011;7432;48.728;9.154;2023-05-27T11:40:57;11.57;;;10.40;;
14688;SDS011;7432;48.728;9.154;2023-05-27T11:43:32;11.50;;;10.40;;
14688;SDS011;7432;48.728;9.154;2023-05-27T11:46:02;11.68;;;10.50;;
14688;SDS011;7432;48.728;9.154;2023-05-27T11:48:29;10.73;;;9.73;;
14688;SDS011;7432;48.728;9.154;2023-05-27T11:50:55;11.40;;;10.20;;
14688;SDS011;7432;48.728;9.154;2023-05-27T11:53:22;11.10;;;10.02;;
14688;SDS011;7432;48.728;9.154;2023-05-27T11:55:53;10.75;;;9.85;;
14688;SDS011;7432;48.728;9.154;2023-05-27T11:58:21;11.95;;;10.45;;
14688;SDS011;7432;48.728;9.154;2023-05-27T12:00:47;11.32;;;10.30;;
14688;SDS011;7432;48.728;9.154;2023-05-27T12:03:14;10.75;;;9.85;;
14688;SDS011;7432;48.728;9.154;2023-05-27T12:05:40;11.98;;;10.77;;
14688;SDS011;7432;48.728;9.154;2023-05-27T12:08:06;11.30;;;10.20;;
14688;SDS011;7432;48.728;9.154;2023-05-27T12:10:33;12.02;;;10.65;;
14688;SDS011;7432;48.728;9.154;2023-05-27T12:13:02;10.98;;;9.90;;
14688;SDS011;7432;48.728;9.154;2023-05-27T12:15:30;11.63;;;10.57;;
14688;SDS011;7432;48.728;9.154;2023-05-27T12:17:57;12.80;;;11.00;;
14688;SDS011;7432;48.728;9.154;2023-05-27T12:20:23;10.57;;;9.60;;
14688;SDS011;7432;48.728;9.154;2023-05-27T12:22:52;12.50;;;10.50;;
14688;SDS011;7432;48.728;9.154;2023-05-27T12:25:18;11.02;;;10.02;;
14688;SDS011;7432;48.728;9.154;2023-05-27T12:27:45;12.93;;;10.90;;
14688;SDS011;7432;48.728;9.154;2023-05-27T12:30:11;12.75;;;10.32;;
14688;SDS011;7432;48.728;9.154;2023-05-27T12:32:40;12.05;;;10.88;;
14688;SDS011;7432;48.728;9.154;2023-05-27T12:35:07;11.13;;;9.90;;
14688;SDS011;7432;48.728;9.154;2023-05-27T12:37:34;11.45;;;10.35;;
14688;SDS011;7432;48.728;9.154;2023-05-27T12:40:01;11.30;;;9.68;;
14688;SDS011;7432;48.728;9.154;2023-05-27T12:42:30;11.82;;;10.45;;
14688;SDS011;7432;48.728;9.154;2023-05-27T12:44:57;11.95;;;10.85;;
14688;SDS011;7432;48.728;9.154;2023-05-27T12:47:24;11.90;;;10.80;;
14688;SDS011;7432;48.728;9.154;2023-05-27T12:49:52;11.95;;;10.75;;
14688;SDS011;7432;48.728;9.154;2023-05-27T12:52:18;11.82;;;10.55;;
14688;SDS011;7432;48.728;9.154;2023-05-27T12:54:44;11.95;;;10.75;;
14688;SDS011;7432;48.728;9.154;2023-05-27T12:57:11;13.60;;;10.80;;
14688;SDS011;7432;48.728;9.154;2023-05-27T12:59:37;12.50;;;11.25;;
14688;SDS011;7432;48.728;9.154;2023-05-27T13:02:03;12.60;;;11.00;;
14688;SDS011;7432;48.728;9.154;2023-05-27T13:04:31;11.35;;;10.38;;
14688;SDS011;7432;48.728;9.154;2023-05-27T13:06:59;13.45;;;11.75;;
14688;SDS011;7432;48.728;9.154;2023-05-27T13:09:26;13.57;;;11.35;;
14688;SDS011;7432;48.728;9.154;2023-05-27T13:11:52;12.57;;;11.27;;
14688;SDS011;7432;48.728;9.154;2023-05-27T13:14:18;11.52;;;10.50;;
14688;SDS011;7432;48.728;9.154;2023-05-27T13:16:45;12.35;;;11.27;;
14688;SDS011;7432;48.728;9.154;2023-05-27T13:19:11;13.18;;;11.68;;
14688;SDS011;7432;48.728;9.154;2023-05-27T13:21:38;12.10;;;10.70;;
14688;SDS011;7432;48.728;9.154;2023-05-27T13:24:05;13.10;;;11.63;;
14688;SDS011;7432;48.728;9.154;2023-05-27T13:26:32;12.38;;;11.20;;
14688;SDS011;7432;48.728;9.154;2023-05-27T13:28:59;12.80;;;11.50;;
14688;SDS011;7432;48.728;9.154;2023-05-27T13:31:25;12.63;;;11.40;;
14688;SDS011;7432;48.728;9.154;2023-05-27T13:33:51;11.95;;;10.80;;
14688;SDS011;7432;48.728;9.154;2023-05-27T13:36:18;12.57;;;11.38;;
14688;SDS011;7432;48.728;9.154;2023-05-27T13:38:44;14.40;;;12.02;;
14688;SDS011;7432;48.728;9.154;2023-05-27T13:41:12;12.98;;;11.35;;
14688;SDS011;7432;48.728;9.154;2023-05-27T13:43:38;11.82;;;10.60;;
14688;SDS011;7432;48.728;9.154;2023-05-27T13:46:05;12.38;;;11.05;;
14688;SDS011;7432;48.728;9.154;2023-05-27T13:48:31;14.63;;;11.52;;
14688;SDS011;7432;48.728;9.154;2023-05-27T13:50:58;12.68;;;11.48;;
14688;SDS011;7432;48.728;9.154;2023-05-27T13:53:24;11.70;;;10.70;;
14688;SDS011;7432;48.728;9.154;2023-05-27T13:55:51;12.27;;;11.13;;
14688;SDS011;7432;48.728;9.154;2023-05-27T13:58:19;11.55;;;10.43;;
14688;SDS011;7432;48.728;9.154;2023-05-27T14:00:45;12.07;;;10.85;;
14688;SDS011;7432;48.728;9.154;2023-05-27T14:03:12;11.40;;;10.40;;
14688;SDS011;7432;48.728;9.154;2023-05-27T14:05:38;11.55;;;10.38;;
14688;SDS011;7432;48.728;9.154;2023-05-27T14:08:05;11.20;;;10.10;;
14688;SDS011;7432;48.728;9.154;2023-05-27T14:10:33;11.70;;;10.50;;
14688;SDS011;7432;48.728;9.154;2023-05-27T14:13:00;11.20;;;10.10;;
14688;SDS011;7432;48.728;9.154;2023-05-27T14:15:29;10.70;;;9.70;;
14688;SDS011;7432;48.728;9.154;2023-05-27T14:17:56;14.82;;;9.13;;
14688;SDS011;7432;48.728;9.154;2023-05-27T14:20:25;10.25;;;9.43;;
14688;SDS011;7432;48.728;9.154;2023-05-27T14:22:51;10.70;;;9.70;;
14688;SDS011;7432;48.728;9.154;2023-05-27T14:25:18;10.50;;;9.50;;
14688;SDS011;7432;48.728;9.154;2023-05-27T14:27:45;10.93;;;9.70;;
14688;SDS011;7432;48.728;9.154;2023-05-27T14:30:11;10.57;;;9.70;;
14688;SDS011;7432;48.728;9.154;2023-05-27T14:32:39;10.57;;;9.45;;
14688;SDS011;7432;48.728;9.154;2023-05-27T14:35:06;11.18;;;9.23;;
14688;SDS011;7432;48.728;9.154;2023-05-27T14:37:33;11.23;;;10.00;;
14688;SDS011;7432;48.728;9.154;2023-05-27T14:40:00;9.80;;;8.80;;
14688;SDS011;7432;48.728;9.154;2023-05-27T14:42:26;10.70;;;9.45;;
14688;SDS011;7432;48.728;9.154;2023-05-27T14:44:53;9.50;;;8.57;;
14688;SDS011;7432;48.728;9.154;2023-05-27T14:47:19;9.73;;;8.82;;